sensor_id;sensor_type;location;lat;lon;timestamp;temperature;humidity
21149;DHT22;10732;51.472;6.466;2024-03-22T00:01:50;10.50;99.90
21149;DHT22;10732;51.472;6.466;2024-03-22T00:04:16;10.50;99.90
21149;DHT22;10732;51.472;6.466;2024-03-22T00:06:43;10.50;99.90
21149;DHT22;10732;51.472;6.466;2024-03-22T00:09:09;10.50;99.90
21149;DHT22;10732;51.472;6.466;2024-03-22T00:11:35;10.60;99.90
21149;DHT22;10732;51.472;6.466;2024-03-22T00:14:01;10.60;99.90
21149;DHT22;10732;51.472;6.466;2024-03-22T00:16:27;10.60;99.90
21149;DHT22;10732;51.472;6.466;2024-03-22T00:18:53;10.60;99.90
21149;DHT22;10732;51.472;6.466;2024-03-22T00:21:19;10.60;99.90
21149;DHT22;10732;51.472;6.466;2024-03-22T00:23:45;10.60;99.90
21149;DHT22;10732;51.472;6.466;2024-03-22T00:26:11;10.60;99.90
21149;DHT22;10732;51.472;6.466;2024-03-22T00:28:37;10.60;99.90
21149;DHT22;10732;51.472;6.466;2024-03-22T00:31:02;10.60;99.90
21149;DHT22;10732;51.472;6.466;2024-03-22T00:33:28;10.60;99.90
21149;DHT22;10732;51.472;6.466;2024-03-22T00:35:53;10.60;99.90
21149;DHT22;10732;51.472;6.466;2024-03-22T00:38:19;10.60;99.90
21149;DHT22;10732;51.472;6.466;2024-03-22T00:40:45;10.60;99.90
21149;DHT22;10732;51.472;6.466;2024-03-22T00:43:10;10.60;99.90
21149;DHT22;10732;51.472;6.466;2024-03-22T00:45:36;10.60;99.90
21149;DHT22;10732;51.472;6.466;2024-03-22T00:48:01;10.60;99.90
21149;DHT22;10732;51.472;6.466;2024-03-22T00:50:27;10.60;99.90
21149;DHT22;10732;51.472;6.466;2024-03-22T00:52:54;10.60;99.90
21149;DHT22;10732;51.472;6.466;2024-03-22T00:55:22;10.60;99.90
21149;DHT22;10732;51.472;6.466;2024-03-22T00:57:47;10.60;99.90
21149;DHT22;10732;51.472;6.466;2024-03-22T01:00:13;10.60;99.90
21149;DHT22;10732;51.472;6.466;2024-03-22T01:02:40;10.60;99.90
21149;DHT22;10732;51.472;6.466;2024-03-22T01:05:05;10.60;99.90
21149;DHT22;10732;51.472;6.466;2024-03-22T01:07:31;10.60;99.90
21149;DHT22;10732;51.472;6.466;2024-03-22T01:09:57;10.60;99.90
21149;DHT22;10732;51.472;6.466;2024-03-22T01:12:22;10.60;99.90
21149;DHT22;10732;51.472;6.466;2024-03-22T01:14:48;10.60;99.90
21149;DHT22;10732;51.472;6.466;2024-03-22T01:17:13;10.60;99.90
21149;DHT22;10732;51.472;6.466;2024-03-22T01:19:39;10.70;99.90
21149;DHT22;10732;51.472;6.466;2024-03-22T01:22:05;10.70;99.90
21149;DHT22;10732;51.472;6.466;2024-03-22T01:24:30;10.70;99.90
21149;DHT22;10732;51.472;6.466;2024-03-22T01:26:56;10.70;99.90
21149;DHT22;10732;51.472;6.466;2024-03-22T01:29:21;10.70;99.90
21149;DHT22;10732;51.472;6.466;2024-03-22T01:31:47;10.70;99.90
21149;DHT22;10732;51.472;6.466;2024-03-22T01:34:13;10.70;99.90
21149;DHT22;10732;51.472;6.466;2024-03-22T01:36:39;10.70;99.90
21149;DHT22;10732;51.472;6.466;2024-03-22T01:39:05;10.70;99.90
21149;DHT22;10732;51.472;6.466;2024-03-22T01:41:30;10.80;99.90
21149;DHT22;10732;51.472;6.466;2024-03-22T01:43:57;10.80;99.90
21149;DHT22;10732;51.472;6.466;2024-03-22T01:46:23;10.80;99.90
21149;DHT22;10732;51.472;6.466;2024-03-22T01:48:48;10.80;99.90
21149;DHT22;10732;51.472;6.466;2024-03-22T01:51:14;10.80;99.90
21149;DHT22;10732;51.472;6.466;2024-03-22T01:53:40;10.80;99.90
21149;DHT22;10732;51.472;6.466;2024-03-22T01:56:07;10.80;99.90
21149;DHT22;10732;51.472;6.466;2024-03-22T01:58:33;10.80;99.90
21149;DHT22;10732;51.472;6.466;2024-03-22T02:00:58;10.80;99.90
21149;DHT22;10732;51.472;6.466;2024-03-22T02:03:24;10.80;99.90
21149;DHT22;10732;51.472;6.466;2024-03-22T02:05:50;10.80;99.90
21149;DHT22;10732;51.472;6.466;2024-03-22T02:08:15;10.90;99.90
21149;DHT22;10732;51.472;6.466;2024-03-22T02:10:41;10.90;99.90
21149;DHT22;10732;51.472;6.466;2024-03-22T02:13:07;10.90;99.90
21149;DHT22;10732;51.472;6.466;2024-03-22T02:15:33;10.90;99.90
21149;DHT22;10732;51.472;6.466;2024-03-22T02:17:58;10.90;99.90
21149;DHT22;10732;51.472;6.466;2024-03-22T02:20:24;10.90;99.90
21149;DHT22;10732;51.472;6.466;2024-03-22T02:22:49;10.80;99.90
21149;DHT22;10732;51.472;6.466;2024-03-22T02:25:15;10.80;99.90
21149;DHT22;10732;51.472;6.466;2024-03-22T02:27:41;10.80;99.90
21149;DHT22;10732;51.472;6.466;2024-03-22T02:30:07;10.90;99.90
21149;DHT22;10732;51.472;6.466;2024-03-22T02:32:33;10.80;99.90
21149;DHT22;10732;51.472;6.466;2024-03-22T02:34:58;10.80;99.90
21149;DHT22;10732;51.472;6.466;2024-03-22T02:37:24;10.90;99.90
21149;DHT22;10732;51.472;6.466;2024-03-22T02:39:49;10.90;99.90
21149;DHT22;10732;51.472;6.466;2024-03-22T02:42:15;10.90;99.90
21149;DHT22;10732;51.472;6.466;2024-03-22T02:44:41;11.00;99.90
21149;DHT22;10732;51.472;6.466;2024-03-22T02:47:09;10.90;99.90
21149;DHT22;10732;51.472;6.466;2024-03-22T02:49:35;10.90;99.90
21149;DHT22;10732;51.472;6.466;2024-03-22T02:52:01;10.90;99.90
21149;DHT22;10732;51.472;6.466;2024-03-22T02:54:27;10.90;99.90
21149;DHT22;10732;51.472;6.466;2024-03-22T02:56:52;10.80;99.90
21149;DHT22;10732;51.472;6.466;2024-03-22T02:59:18;10.80;99.90
21149;DHT22;10732;51.472;6.466;2024-03-22T03:01:43;10.80;99.90
21149;DHT22;10732;51.472;6.466;2024-03-22T03:04:09;10.80;99.90
21149;DHT22;10732;51.472;6.466;2024-03-22T03:06:35;10.70;99.90
21149;DHT22;10732;51.472;6.466;2024-03-22T03:09:00;10.70;99.90
21149;DHT22;10732;51.472;6.466;2024-03-22T03:11:26;10.70;99.90
21149;DHT22;10732;51.472;6.466;2024-03-22T03:13:51;10.60;99.90
21149;DHT22;10732;51.472;6.466;2024-03-22T03:16:17;10.60;99.90
21149;DHT22;10732;51.472;6.466;2024-03-22T03:18:42;10.50;99.90
21149;DHT22;10732;51.472;6.466;2024-03-22T03:21:08;10.50;99.90
21149;DHT22;10732;51.472;6.466;2024-03-22T03:23:34;10.50;99.90
21149;DHT22;10732;51.472;6.466;2024-03-22T03:25:59;10.50;99.90
21149;DHT22;10732;51.472;6.466;2024-03-22T03:28:25;10.50;99.90
21149;DHT22;10732;51.472;6.466;2024-03-22T03:30:51;10.50;99.90
21149;DHT22;10732;51.472;6.466;2024-03-22T03:33:17;10.50;99.90
21149;DHT22;10732;51.472;6.466;2024-03-22T03:35:46;10.50;99.90
21149;DHT22;10732;51.472;6.466;2024-03-22T03:38:12;10.50;99.90
21149;DHT22;10732;51.472;6.466;2024-03-22T03:40:38;10.50;99.90
21149;DHT22;10732;51.472;6.466;2024-03-22T03:43:03;10.60;99.90
21149;DHT22;10732;51.472;6.466;2024-03-22T03:45:29;10.60;99.90
21149;DHT22;10732;51.472;6.466;2024-03-22T03:47:54;10.60;99.90
21149;DHT22;10732;51.472;6.466;2024-03-22T03:50:20;10.60;99.90
21149;DHT22;10732;51.472;6.466;2024-03-22T03:52:46;10.50;99.90
21149;DHT22;10732;51.472;6.466;2024-03-22T03:55:11;10.50;99.90
21149;DHT22;10732;51.472;6.466;2024-03-22T03:57:37;10.50;99.90
21149;DHT22;10732;51.472;6.466;2024-03-22T04:00:03;10.60;99.90
21149;DHT22;10732;51.472;6.466;2024-03-22T04:02:29;10.60;99.90
21149;DHT22;10732;51.472;6.466;2024-03-22T04:04:54;10.70;99.90
21149;DHT22;10732;51.472;6.466;2024-03-22T04:07:20;10.70;99.90
21149;DHT22;10732;51.472;6.466;2024-03-22T04:09:46;10.70;99.90
21149;DHT22;10732;51.472;6.466;2024-03-22T04:12:12;10.80;99.90
21149;DHT22;10732;51.472;6.466;2024-03-22T04:14:37;10.80;99.90
21149;DHT22;10732;51.472;6.466;2024-03-22T04:17:03;10.80;99.90
21149;DHT22;10732;51.472;6.466;2024-03-22T04:19:29;10.80;99.90
21149;DHT22;10732;51.472;6.466;2024-03-22T04:21:54;10.90;99.90
21149;DHT22;10732;51.472;6.466;2024-03-22T04:24:20;10.80;99.90
21149;DHT22;10732;51.472;6.466;2024-03-22T04:26:45;10.80;99.90
21149;DHT22;10732;51.472;6.466;2024-03-22T04:29:11;10.80;99.90
21149;DHT22;10732;51.472;6.466;2024-03-22T04:31:37;10.90;99.90
21149;DHT22;10732;51.472;6.466;2024-03-22T04:34:02;10.80;99.90
21149;DHT22;10732;51.472;6.466;2024-03-22T04:36:28;10.80;99.90
21149;DHT22;10732;51.472;6.466;2024-03-22T04:38:53;10.70;99.90
21149;DHT22;10732;51.472;6.466;2024-03-22T04:41:19;10.70;99.90
21149;DHT22;10732;51.472;6.466;2024-03-22T04:43:45;10.70;99.90
21149;DHT22;10732;51.472;6.466;2024-03-22T04:46:10;10.80;99.90
21149;DHT22;10732;51.472;6.466;2024-03-22T04:48:36;10.80;99.90
21149;DHT22;10732;51.472;6.466;2024-03-22T04:51:01;10.70;99.90
21149;DHT22;10732;51.472;6.466;2024-03-22T04:53:27;10.70;99.90
21149;DHT22;10732;51.472;6.466;2024-03-22T04:55:52;10.80;99.90
21149;DHT22;10732;51.472;6.466;2024-03-22T04:58:19;10.70;99.90
21149;DHT22;10732;51.472;6.466;2024-03-22T05:00:46;10.70;99.90
21149;DHT22;10732;51.472;6.466;2024-03-22T05:03:12;10.70;99.90
21149;DHT22;10732;51.472;6.466;2024-03-22T05:05:38;10.60;99.90
21149;DHT22;10732;51.472;6.466;2024-03-22T05:08:05;10.60;99.90
21149;DHT22;10732;51.472;6.466;2024-03-22T05:10:31;10.60;99.90
21149;DHT22;10732;51.472;6.466;2024-03-22T05:12:57;10.60;99.90
21149;DHT22;10732;51.472;6.466;2024-03-22T05:15:23;10.60;99.90
21149;DHT22;10732;51.472;6.466;2024-03-22T05:17:51;10.60;99.90
21149;DHT22;10732;51.472;6.466;2024-03-22T05:20:17;10.60;99.90
21149;DHT22;10732;51.472;6.466;2024-03-22T05:22:43;10.60;99.90
21149;DHT22;10732;51.472;6.466;2024-03-22T05:25:08;10.60;99.90
21149;DHT22;10732;51.472;6.466;2024-03-22T05:27:35;10.60;99.90
21149;DHT22;10732;51.472;6.466;2024-03-22T05:30:00;10.60;99.90
21149;DHT22;10732;51.472;6.466;2024-03-22T05:32:26;10.60;99.90
21149;DHT22;10732;51.472;6.466;2024-03-22T05:34:55;10.60;99.90
21149;DHT22;10732;51.472;6.466;2024-03-22T05:37:21;10.70;99.90
21149;DHT22;10732;51.472;6.466;2024-03-22T05:39:46;10.80;99.90
21149;DHT22;10732;51.472;6.466;2024-03-22T05:42:13;10.80;99.90
21149;DHT22;10732;51.472;6.466;2024-03-22T05:44:38;10.90;99.90
21149;DHT22;10732;51.472;6.466;2024-03-22T05:47:04;10.90;99.90
21149;DHT22;10732;51.472;6.466;2024-03-22T05:49:30;10.90;99.90
21149;DHT22;10732;51.472;6.466;2024-03-22T05:51:55;11.00;99.90
21149;DHT22;10732;51.472;6.466;2024-03-22T05:54:21;11.00;99.90
21149;DHT22;10732;51.472;6.466;2024-03-22T05:56:46;11.00;99.90
21149;DHT22;10732;51.472;6.466;2024-03-22T05:59:12;11.00;99.90
21149;DHT22;10732;51.472;6.466;2024-03-22T06:01:37;11.00;99.90
21149;DHT22;10732;51.472;6.466;2024-03-22T06:04:06;11.00;99.90
21149;DHT22;10732;51.472;6.466;2024-03-22T06:06:33;11.00;99.90
21149;DHT22;10732;51.472;6.466;2024-03-22T06:08:59;11.00;99.90
21149;DHT22;10732;51.472;6.466;2024-03-22T06:11:28;11.00;99.90
21149;DHT22;10732;51.472;6.466;2024-03-22T06:13:53;11.00;99.90
21149;DHT22;10732;51.472;6.466;2024-03-22T06:16:19;11.00;99.90
21149;DHT22;10732;51.472;6.466;2024-03-22T06:18:44;11.00;99.90
21149;DHT22;10732;51.472;6.466;2024-03-22T06:21:10;11.10;99.90
21149;DHT22;10732;51.472;6.466;2024-03-22T06:23:36;11.20;99.90
21149;DHT22;10732;51.472;6.466;2024-03-22T06:26:01;11.20;99.90
21149;DHT22;10732;51.472;6.466;2024-03-22T06:28:28;11.30;99.90
21149;DHT22;10732;51.472;6.466;2024-03-22T06:30:53;11.30;99.90
21149;DHT22;10732;51.472;6.466;2024-03-22T06:33:19;11.30;99.90
21149;DHT22;10732;51.472;6.466;2024-03-22T06:35:46;11.40;99.90
21149;DHT22;10732;51.472;6.466;2024-03-22T06:38:11;11.40;99.90
21149;DHT22;10732;51.472;6.466;2024-03-22T06:40:37;11.50;99.90
21149;DHT22;10732;51.472;6.466;2024-03-22T06:43:03;11.50;99.90
21149;DHT22;10732;51.472;6.466;2024-03-22T06:45:28;11.60;99.90
21149;DHT22;10732;51.472;6.466;2024-03-22T06:47:54;11.80;99.90
21149;DHT22;10732;51.472;6.466;2024-03-22T06:50:20;11.90;99.90
21149;DHT22;10732;51.472;6.466;2024-03-22T06:52:53;12.00;99.90
21149;DHT22;10732;51.472;6.466;2024-03-22T06:55:22;12.10;99.90
21149;DHT22;10732;51.472;6.466;2024-03-22T06:57:48;12.20;99.90
21149;DHT22;10732;51.472;6.466;2024-03-22T07:00:14;12.30;99.90
21149;DHT22;10732;51.472;6.466;2024-03-22T07:02:40;12.30;99.90
21149;DHT22;10732;51.472;6.466;2024-03-22T07:05:07;12.40;99.90
21149;DHT22;10732;51.472;6.466;2024-03-22T07:07:33;12.40;99.90
21149;DHT22;10732;51.472;6.466;2024-03-22T07:09:59;12.50;99.90
21149;DHT22;10732;51.472;6.466;2024-03-22T07:12:24;12.50;99.90
21149;DHT22;10732;51.472;6.466;2024-03-22T07:14:50;12.70;99.90
21149;DHT22;10732;51.472;6.466;2024-03-22T07:17:15;12.80;99.90
21149;DHT22;10732;51.472;6.466;2024-03-22T07:19:41;12.80;99.90
21149;DHT22;10732;51.472;6.466;2024-03-22T07:22:08;12.70;99.90
21149;DHT22;10732;51.472;6.466;2024-03-22T07:24:33;12.80;99.90
21149;DHT22;10732;51.472;6.466;2024-03-22T07:26:59;12.80;99.90
21149;DHT22;10732;51.472;6.466;2024-03-22T07:29:24;12.80;99.90
21149;DHT22;10732;51.472;6.466;2024-03-22T07:31:50;12.90;99.90
21149;DHT22;10732;51.472;6.466;2024-03-22T07:34:16;13.00;99.90
21149;DHT22;10732;51.472;6.466;2024-03-22T07:36:41;13.10;99.90
21149;DHT22;10732;51.472;6.466;2024-03-22T07:39:07;13.20;99.90
21149;DHT22;10732;51.472;6.466;2024-03-22T07:41:33;13.20;99.90
21149;DHT22;10732;51.472;6.466;2024-03-22T07:43:59;13.30;99.90
21149;DHT22;10732;51.472;6.466;2024-03-22T07:46:26;13.30;99.90
21149;DHT22;10732;51.472;6.466;2024-03-22T07:48:51;13.20;99.90
21149;DHT22;10732;51.472;6.466;2024-03-22T07:51:17;13.10;99.90
21149;DHT22;10732;51.472;6.466;2024-03-22T07:53:43;13.20;99.90
21149;DHT22;10732;51.472;6.466;2024-03-22T07:56:09;13.30;99.90
21149;DHT22;10732;51.472;6.466;2024-03-22T07:58:34;13.30;99.90
21149;DHT22;10732;51.472;6.466;2024-03-22T08:01:00;13.40;99.90
21149;DHT22;10732;51.472;6.466;2024-03-22T08:03:25;13.30;99.90
21149;DHT22;10732;51.472;6.466;2024-03-22T08:05:51;13.10;99.90
21149;DHT22;10732;51.472;6.466;2024-03-22T08:08:16;13.00;99.90
21149;DHT22;10732;51.472;6.466;2024-03-22T08:10:43;13.00;99.90
21149;DHT22;10732;51.472;6.466;2024-03-22T08:13:08;13.00;99.90
21149;DHT22;10732;51.472;6.466;2024-03-22T08:15:35;13.20;99.90
21149;DHT22;10732;51.472;6.466;2024-03-22T08:18:01;13.20;99.90
21149;DHT22;10732;51.472;6.466;2024-03-22T08:20:26;13.30;99.90
21149;DHT22;10732;51.472;6.466;2024-03-22T08:22:52;13.40;99.90
21149;DHT22;10732;51.472;6.466;2024-03-22T08:25:18;13.60;99.90
21149;DHT22;10732;51.472;6.466;2024-03-22T08:27:46;13.80;99.90
21149;DHT22;10732;51.472;6.466;2024-03-22T08:30:12;14.00;99.90
21149;DHT22;10732;51.472;6.466;2024-03-22T08:32:38;14.10;99.90
21149;DHT22;10732;51.472;6.466;2024-03-22T08:35:04;14.10;99.90
21149;DHT22;10732;51.472;6.466;2024-03-22T08:37:30;13.90;99.90
21149;DHT22;10732;51.472;6.466;2024-03-22T08:39:56;14.00;99.90
21149;DHT22;10732;51.472;6.466;2024-03-22T08:42:21;14.00;99.90
21149;DHT22;10732;51.472;6.466;2024-03-22T08:44:47;13.90;99.90
21149;DHT22;10732;51.472;6.466;2024-03-22T08:47:12;14.00;99.90
21149;DHT22;10732;51.472;6.466;2024-03-22T08:49:38;14.40;99.90
21149;DHT22;10732;51.472;6.466;2024-03-22T08:52:05;14.80;99.90
21149;DHT22;10732;51.472;6.466;2024-03-22T08:54:30;14.80;99.90
21149;DHT22;10732;51.472;6.466;2024-03-22T08:56:56;15.00;99.90
21149;DHT22;10732;51.472;6.466;2024-03-22T08:59:21;15.30;99.90
21149;DHT22;10732;51.472;6.466;2024-03-22T09:01:50;16.00;99.90
21149;DHT22;10732;51.472;6.466;2024-03-22T09:04:15;16.80;99.90
21149;DHT22;10732;51.472;6.466;2024-03-22T09:06:41;18.00;99.90
21149;DHT22;10732;51.472;6.466;2024-03-22T09:09:06;18.40;99.90
21149;DHT22;10732;51.472;6.466;2024-03-22T09:11:33;18.10;99.90
21149;DHT22;10732;51.472;6.466;2024-03-22T09:13:59;17.80;99.90
21149;DHT22;10732;51.472;6.466;2024-03-22T09:16:24;17.10;99.90
21149;DHT22;10732;51.472;6.466;2024-03-22T09:18:50;16.50;99.90
21149;DHT22;10732;51.472;6.466;2024-03-22T09:21:16;16.50;99.90
21149;DHT22;10732;51.472;6.466;2024-03-22T09:23:41;16.00;99.90
21149;DHT22;10732;51.472;6.466;2024-03-22T09:26:07;15.90;99.90
21149;DHT22;10732;51.472;6.466;2024-03-22T09:28:33;15.70;99.90
21149;DHT22;10732;51.472;6.466;2024-03-22T09:31:03;15.60;99.90
21149;DHT22;10732;51.472;6.466;2024-03-22T09:33:29;15.20;99.90
21149;DHT22;10732;51.472;6.466;2024-03-22T09:35:54;15.10;99.90
21149;DHT22;10732;51.472;6.466;2024-03-22T09:38:20;15.00;99.90
21149;DHT22;10732;51.472;6.466;2024-03-22T09:40:46;15.10;99.90
21149;DHT22;10732;51.472;6.466;2024-03-22T09:43:12;15.10;99.90
21149;DHT22;10732;51.472;6.466;2024-03-22T09:45:43;15.00;99.90
21149;DHT22;10732;51.472;6.466;2024-03-22T09:48:09;15.00;99.90
21149;DHT22;10732;51.472;6.466;2024-03-22T09:50:35;15.00;99.90
21149;DHT22;10732;51.472;6.466;2024-03-22T09:53:01;15.00;99.90
21149;DHT22;10732;51.472;6.466;2024-03-22T09:55:29;15.00;99.90
21149;DHT22;10732;51.472;6.466;2024-03-22T09:57:55;14.80;99.90
21149;DHT22;10732;51.472;6.466;2024-03-22T10:00:21;14.80;99.90
21149;DHT22;10732;51.472;6.466;2024-03-22T10:02:49;14.80;99.90
21149;DHT22;10732;51.472;6.466;2024-03-22T10:05:15;14.90;99.90
21149;DHT22;10732;51.472;6.466;2024-03-22T10:07:40;14.60;99.90
21149;DHT22;10732;51.472;6.466;2024-03-22T10:10:07;14.50;99.90
21149;DHT22;10732;51.472;6.466;2024-03-22T10:12:33;14.40;99.90
21149;DHT22;10732;51.472;6.466;2024-03-22T10:14:59;14.40;99.90
21149;DHT22;10732;51.472;6.466;2024-03-22T10:17:26;14.50;99.90
21149;DHT22;10732;51.472;6.466;2024-03-22T10:19:52;14.40;99.90
21149;DHT22;10732;51.472;6.466;2024-03-22T10:22:18;14.50;99.90
21149;DHT22;10732;51.472;6.466;2024-03-22T10:24:44;14.60;99.90
21149;DHT22;10732;51.472;6.466;2024-03-22T10:27:10;14.70;99.90
21149;DHT22;10732;51.472;6.466;2024-03-22T10:29:36;15.10;99.90
21149;DHT22;10732;51.472;6.466;2024-03-22T10:32:02;15.30;99.90
21149;DHT22;10732;51.472;6.466;2024-03-22T10:34:28;15.30;99.90
21149;DHT22;10732;51.472;6.466;2024-03-22T10:37:00;15.30;99.90
21149;DHT22;10732;51.472;6.466;2024-03-22T10:39:26;15.10;99.90
21149;DHT22;10732;51.472;6.466;2024-03-22T10:41:52;15.20;99.90
21149;DHT22;10732;51.472;6.466;2024-03-22T10:44:18;15.20;99.90
21149;DHT22;10732;51.472;6.466;2024-03-22T10:46:47;15.20;99.90
21149;DHT22;10732;51.472;6.466;2024-03-22T10:49:19;15.10;99.90
21149;DHT22;10732;51.472;6.466;2024-03-22T10:52:01;14.90;99.90
21149;DHT22;10732;51.472;6.466;2024-03-22T10:54:44;14.90;99.90
21149;DHT22;10732;51.472;6.466;2024-03-22T10:57:13;15.10;99.90
21149;DHT22;10732;51.472;6.466;2024-03-22T10:59:41;15.20;99.90
21149;DHT22;10732;51.472;6.466;2024-03-22T11:02:07;15.20;99.90
21149;DHT22;10732;51.472;6.466;2024-03-22T11:04:35;15.20;99.90
21149;DHT22;10732;51.472;6.466;2024-03-22T11:07:01;15.00;99.90
21149;DHT22;10732;51.472;6.466;2024-03-22T11:09:28;14.50;99.90
21149;DHT22;10732;51.472;6.466;2024-03-22T11:11:55;14.40;99.90
21149;DHT22;10732;51.472;6.466;2024-03-22T11:14:26;14.40;99.90
21149;DHT22;10732;51.472;6.466;2024-03-22T11:16:52;14.30;99.90
21149;DHT22;10732;51.472;6.466;2024-03-22T11:19:18;14.20;99.90
21149;DHT22;10732;51.472;6.466;2024-03-22T11:21:44;14.10;99.90
21149;DHT22;10732;51.472;6.466;2024-03-22T11:24:09;13.90;99.90
21149;DHT22;10732;51.472;6.466;2024-03-22T11:26:36;13.80;99.90
21149;DHT22;10732;51.472;6.466;2024-03-22T11:29:03;13.80;99.90
21149;DHT22;10732;51.472;6.466;2024-03-22T11:31:28;13.60;99.90
21149;DHT22;10732;51.472;6.466;2024-03-22T11:33:54;13.60;99.90
21149;DHT22;10732;51.472;6.466;2024-03-22T11:36:21;13.70;99.90
21149;DHT22;10732;51.472;6.466;2024-03-22T11:38:47;13.60;99.90
21149;DHT22;10732;51.472;6.466;2024-03-22T11:41:20;13.40;99.90
21149;DHT22;10732;51.472;6.466;2024-03-22T11:43:49;13.40;99.90
21149;DHT22;10732;51.472;6.466;2024-03-22T11:46:15;13.30;99.90
21149;DHT22;10732;51.472;6.466;2024-03-22T11:48:42;13.20;99.90
21149;DHT22;10732;51.472;6.466;2024-03-22T11:51:08;13.20;99.90
21149;DHT22;10732;51.472;6.466;2024-03-22T11:53:35;13.30;99.90
21149;DHT22;10732;51.472;6.466;2024-03-22T11:56:01;13.30;99.90
21149;DHT22;10732;51.472;6.466;2024-03-22T11:58:29;13.30;99.90
21149;DHT22;10732;51.472;6.466;2024-03-22T12:00:58;13.10;99.90
21149;DHT22;10732;51.472;6.466;2024-03-22T12:03:24;13.00;99.90
21149;DHT22;10732;51.472;6.466;2024-03-22T12:05:53;12.90;99.90
21149;DHT22;10732;51.472;6.466;2024-03-22T12:08:19;12.80;99.90
21149;DHT22;10732;51.472;6.466;2024-03-22T12:10:45;12.80;99.90
21149;DHT22;10732;51.472;6.466;2024-03-22T12:13:10;12.70;99.90
21149;DHT22;10732;51.472;6.466;2024-03-22T12:15:36;12.70;99.90
21149;DHT22;10732;51.472;6.466;2024-03-22T12:18:02;12.70;99.90
21149;DHT22;10732;51.472;6.466;2024-03-22T12:20:28;12.70;99.90
21149;DHT22;10732;51.472;6.466;2024-03-22T12:22:53;12.60;99.90
21149;DHT22;10732;51.472;6.466;2024-03-22T12:25:19;12.60;99.90
21149;DHT22;10732;51.472;6.466;2024-03-22T12:27:46;12.70;99.90
21149;DHT22;10732;51.472;6.466;2024-03-22T12:30:12;12.60;99.90
21149;DHT22;10732;51.472;6.466;2024-03-22T12:32:38;12.80;99.90
21149;DHT22;10732;51.472;6.466;2024-03-22T12:35:04;12.60;99.90
21149;DHT22;10732;51.472;6.466;2024-03-22T12:37:29;12.70;99.90
21149;DHT22;10732;51.472;6.466;2024-03-22T12:39:55;12.80;99.90
21149;DHT22;10732;51.472;6.466;2024-03-22T12:42:21;12.60;99.90
21149;DHT22;10732;51.472;6.466;2024-03-22T12:44:47;12.70;99.90
21149;DHT22;10732;51.472;6.466;2024-03-22T12:47:12;12.70;99.90
21149;DHT22;10732;51.472;6.466;2024-03-22T12:49:38;12.70;99.90
21149;DHT22;10732;51.472;6.466;2024-03-22T12:52:03;12.80;99.90
21149;DHT22;10732;51.472;6.466;2024-03-22T12:54:29;12.90;99.90
21149;DHT22;10732;51.472;6.466;2024-03-22T12:56:55;12.90;99.90
21149;DHT22;10732;51.472;6.466;2024-03-22T12:59:21;12.90;99.90
21149;DHT22;10732;51.472;6.466;2024-03-22T13:01:46;12.90;99.90
21149;DHT22;10732;51.472;6.466;2024-03-22T13:04:12;12.80;99.90
21149;DHT22;10732;51.472;6.466;2024-03-22T13:06:38;12.80;99.90
21149;DHT22;10732;51.472;6.466;2024-03-22T13:09:03;12.60;99.90
21149;DHT22;10732;51.472;6.466;2024-03-22T13:11:31;12.50;99.90
21149;DHT22;10732;51.472;6.466;2024-03-22T13:13:57;12.40;99.90
21149;DHT22;10732;51.472;6.466;2024-03-22T13:16:23;12.40;99.90
21149;DHT22;10732;51.472;6.466;2024-03-22T13:18:49;12.50;99.90
21149;DHT22;10732;51.472;6.466;2024-03-22T13:21:14;12.50;99.90
21149;DHT22;10732;51.472;6.466;2024-03-22T13:23:40;12.50;99.90
21149;DHT22;10732;51.472;6.466;2024-03-22T13:26:05;12.50;99.90
21149;DHT22;10732;51.472;6.466;2024-03-22T13:28:32;12.50;99.90
21149;DHT22;10732;51.472;6.466;2024-03-22T13:31:04;12.40;99.90
21149;DHT22;10732;51.472;6.466;2024-03-22T13:33:34;12.50;99.90
21149;DHT22;10732;51.472;6.466;2024-03-22T13:36:01;12.60;99.90
21149;DHT22;10732;51.472;6.466;2024-03-22T13:38:27;12.50;99.90
21149;DHT22;10732;51.472;6.466;2024-03-22T13:40:57;12.50;99.90
21149;DHT22;10732;51.472;6.466;2024-03-22T13:43:25;12.50;99.90
21149;DHT22;10732;51.472;6.466;2024-03-22T13:45:52;12.50;99.90
21149;DHT22;10732;51.472;6.466;2024-03-22T13:48:24;12.50;99.90
21149;DHT22;10732;51.472;6.466;2024-03-22T13:50:54;12.60;99.90
21149;DHT22;10732;51.472;6.466;2024-03-22T13:53:20;12.50;99.90
21149;DHT22;10732;51.472;6.466;2024-03-22T13:55:49;12.50;99.90
21149;DHT22;10732;51.472;6.466;2024-03-22T13:58:15;12.50;99.90
21149;DHT22;10732;51.472;6.466;2024-03-22T14:00:41;12.40;99.90
21149;DHT22;10732;51.472;6.466;2024-03-22T14:03:07;12.40;99.90
21149;DHT22;10732;51.472;6.466;2024-03-22T14:05:33;12.40;99.90
21149;DHT22;10732;51.472;6.466;2024-03-22T14:07:59;12.30;99.90
21149;DHT22;10732;51.472;6.466;2024-03-22T14:10:25;12.30;99.90
21149;DHT22;10732;51.472;6.466;2024-03-22T14:12:53;12.20;99.90
21149;DHT22;10732;51.472;6.466;2024-03-22T14:15:19;12.10;99.90
21149;DHT22;10732;51.472;6.466;2024-03-22T14:17:45;12.00;99.90
21149;DHT22;10732;51.472;6.466;2024-03-22T14:20:11;11.90;99.90
21149;DHT22;10732;51.472;6.466;2024-03-22T14:22:40;11.90;99.90
21149;DHT22;10732;51.472;6.466;2024-03-22T14:25:07;12.00;99.90
21149;DHT22;10732;51.472;6.466;2024-03-22T14:27:33;12.00;99.90
21149;DHT22;10732;51.472;6.466;2024-03-22T14:30:00;12.00;99.90
21149;DHT22;10732;51.472;6.466;2024-03-22T14:32:26;12.00;99.90
21149;DHT22;10732;51.472;6.466;2024-03-22T14:34:52;12.00;99.90
21149;DHT22;10732;51.472;6.466;2024-03-22T14:37:17;12.00;99.90
21149;DHT22;10732;51.472;6.466;2024-03-22T14:39:43;11.90;99.90
21149;DHT22;10732;51.472;6.466;2024-03-22T14:42:09;11.90;99.90
21149;DHT22;10732;51.472;6.466;2024-03-22T14:44:34;11.80;99.90
21149;DHT22;10732;51.472;6.466;2024-03-22T14:47:00;11.70;99.90
21149;DHT22;10732;51.472;6.466;2024-03-22T14:49:27;11.60;99.90
21149;DHT22;10732;51.472;6.466;2024-03-22T14:51:52;11.60;99.90
21149;DHT22;10732;51.472;6.466;2024-03-22T14:54:18;11.70;99.90
21149;DHT22;10732;51.472;6.466;2024-03-22T14:56:43;11.60;99.90
21149;DHT22;10732;51.472;6.466;2024-03-22T14:59:09;11.60;99.90
21149;DHT22;10732;51.472;6.466;2024-03-22T15:01:34;11.70;99.90
21149;DHT22;10732;51.472;6.466;2024-03-22T15:04:01;11.60;99.90
21149;DHT22;10732;51.472;6.466;2024-03-22T15:06:27;11.40;99.90
21149;DHT22;10732;51.472;6.466;2024-03-22T15:08:56;11.30;99.90
21149;DHT22;10732;51.472;6.466;2024-03-22T15:11:21;11.30;99.90
21149;DHT22;10732;51.472;6.466;2024-03-22T15:13:47;11.30;99.90
21149;DHT22;10732;51.472;6.466;2024-03-22T15:16:12;11.30;99.90
21149;DHT22;10732;51.472;6.466;2024-03-22T15:18:39;11.20;99.90
21149;DHT22;10732;51.472;6.466;2024-03-22T15:21:07;11.20;99.90
21149;DHT22;10732;51.472;6.466;2024-03-22T15:23:34;11.30;99.90